Aérodrome :
LOGIN :

S'inscrire | Disclaimer

   EN    FR    IT 

 










Légende :    VFR   VFR Marginal   IFR   IFR Intensif   IFR Très Intensif
Visi : 
Plafond : 
>= 8 km
>= 3000ft
5 à 8 km
1000 à 3000 ft
1500m à 5 km
500 à 1000 ft
800 à 1500m
200 à 500 ft
< 800m
< 200 ft
Symboles :   Orages  Brouillard  Fortes neiges  Fortes précipitations  Vent > 20 kt
SIGMETs :   Divers  Orages  Givrage  Turbulence  Onde Orograph.  Cendres Volcan.







- Altitude de l'aérodrome : 6 ft
- Code IATA : PSA


LIRP - Galileo Galilei Pisa

DERNIER METAR :
  • 240615Z 13003KT 5000 BR BKN025 13/13 Q1016 NOSIG

METARs EXPIRÉS :
  • 240545Z 13004KT 5000 BR SCT025 12/12 Q1015 NOSIG
  • 240515Z 12003KT 4000 BR FEW015 SCT020 11/11 Q1015 NOSIG
  • 240445Z 11003KT 4000 BR FEW015 SCT020 11/11 Q1015 NOSIG
  • 240415Z 15002KT 4000 BR FEW015 SCT020 10/10 Q1015 NOSIG
  • 240345Z VRB02KT 2500 1200SW BR MIFG FEW003 SCT015 10/10 Q1015 BECMG 0800

TAF TAF LIRP
Valide du 24 à 06h jusqu'au 25 à 06h UTC


240500Z 2406/2506 VRB03KT 4000 BR FEW015 SCT020
BECMG 2406/2408 9999 SCT030
BECMG 2410/2412 27010KT CAVOK
BECMG 2418/2420 VRB04KT 9999 SCT070
TEMPO 2500/2506 3000 BR SCT010
PROB40
TEMPO 2500/2506 1200 BR MIFG
Pas de NOTAMs connus pour ce terrain.



MET'MAP, la Météo Aéronautique d'un coup d'oeil ! - Copyright ORBIFLY Décembre 2007 - Disclaimer

ORBIFLY MET'MAP TEAM :

Programmation & Développement : Alexandra Zaïnal
Conception & Développement : Baudouin d'Aumeries
Co-Programmation & Développement : Marc-Olivier Méhu
Soutien technique & logistique : Manuel Goepfert

Contact : metmap@orbifly.com




SOURCES & CREDITS :

   NOAA